Time;durP1;ratioP1;P1;durP2;ratioP2;P2;SDS_P1;SDS_P2;PMS_P1;PMS_P2;Temp;Humidity;BMP_temperature;BMP_pressure;BME280_temperature;BME280_humidity;BME280_pressure;Samples;Min_cycle;Max_cycle;Signal;HPM_P1;HPM_P2
2022/04/21 00:00:33;;;;;;;0.25;0.25;;;;;;;23.69;18.82;101717.72;5048922;28;20483;-75
2022/04/21 00:02:59;;;;;;;0.25;0.25;;;;;;;23.68;19.01;101725.09;5033589;28;20025;-75
2022/04/21 00:05:24;;;;;;;0.20;0.20;;;;;;;23.69;18.89;101731.38;5033679;28;20029;-75
2022/04/21 00:07:50;;;;;;;0.30;0.30;;;;;;;23.69;18.79;101725.91;5034321;28;20029;-75
2022/04/21 00:10:16;;;;;;;0.20;0.20;;;;;;;23.68;18.91;101733.28;5033319;28;20029;-75
2022/04/21 00:12:41;;;;;;;0.28;0.28;;;;;;;23.68;19.01;101726.97;5048797;28;20135;-75
2022/04/21 00:15:07;;;;;;;0.22;0.22;;;;;;;23.67;18.78;101728.88;5033211;28;20376;-74
2022/04/21 00:17:33;;;;;;;0.20;0.20;;;;;;;23.67;18.71;101734.34;5033452;28;20029;-75
2022/04/21 00:20:00;;;;;;;0.20;0.20;;;;;;;23.66;18.71;101732.69;5048605;28;20546;-75
2022/04/21 00:25:12;;;;;;;0.47;0.30;;;;;;;23.67;18.93;101731.63;5031009;28;20177;-75
2022/04/21 00:27:46;;;;;;;0.20;0.20;;;;;;;23.69;18.84;101737.66;5031387;28;20138;-75
2022/04/21 00:30:12;;;;;;;0.30;0.30;;;;;;;23.66;18.61;101740.88;5030944;28;20144;-75
2022/04/21 00:32:39;;;;;;;0.20;0.20;;;;;;;23.65;18.72;101739.22;5030950;28;20029;-75
2022/04/21 00:35:06;;;;;;;0.30;0.30;;;;;;;23.65;18.87;101738.41;5014298;28;20033;-75
2022/04/21 00:37:31;;;;;;;0.30;0.30;;;;;;;23.64;18.94;101743.00;5030928;28;20472;-75
2022/04/21 00:39:57;;;;;;;0.20;0.20;;;;;;;23.65;18.61;101741.13;5030751;28;20092;-75
2022/04/21 00:42:22;;;;;;;0.20;0.20;;;;;;;23.62;18.77;101739.69;5030593;28;20052;-75
2022/04/21 00:44:49;;;;;;;0.30;0.30;;;;;;;23.64;18.75;101745.75;5014591;28;20055;-75
2022/04/21 00:47:15;;;;;;;0.28;0.28;;;;;;;23.62;18.66;101742.44;5030892;28;20049;-75
2022/04/21 00:49:41;;;;;;;0.30;0.20;;;;;;;23.64;18.63;101745.75;5014802;28;20117;-76
2022/04/21 00:52:06;;;;;;;0.22;0.22;;;;;;;23.62;18.79;101742.44;5022403;28;20060;-75
2022/04/21 00:54:32;;;;;;;0.55;0.30;;;;;;;23.62;18.69;101747.88;4994751;28;20499;-75
2022/04/21 00:56:57;;;;;;;0.30;0.30;;;;;;;23.61;18.69;101747.06;5011074;28;20053;-75
2022/04/21 00:59:23;;;;;;;0.30;0.30;;;;;;;23.62;18.70;101747.88;4978395;28;20062;-75
2022/04/21 01:04:32;;;;;;;0.20;0.20;;;;;;;23.64;18.50;101745.75;5012139;28;20032;-75
2022/04/21 01:06:57;;;;;;;0.30;0.30;;;;;;;23.60;18.67;101747.31;5011724;28;20033;-75
2022/04/21 01:09:23;;;;;;;0.28;0.28;;;;;;;23.60;18.59;101744.56;5013583;28;20059;-75
2022/04/21 01:11:49;;;;;;;0.40;0.40;;;;;;;23.60;18.68;101747.31;5017045;28;20026;-75
2022/04/21 01:14:15;;;;;;;0.30;0.30;;;;;;;23.56;18.66;101741.50;5015532;28;20387;-75
2022/04/21 01:16:40;;;;;;;0.20;0.20;;;;;;;23.59;18.68;101742.91;5016606;28;20068;-75
2022/04/21 01:19:05;;;;;;;0.30;0.30;;;;;;;23.59;18.57;101743.75;5016677;28;20026;-75
2022/04/21 01:21:31;;;;;;;0.30;0.30;;;;;;;23.59;18.63;101740.19;5016759;28;20472;-75
2022/04/21 01:23:56;;;;;;;0.30;0.30;;;;;;;23.59;18.69;101746.50;5016869;28;20456;-75
2022/04/21 01:26:22;;;;;;;0.20;0.20;;;;;;;23.58;18.47;101747.53;5016513;28;20084;-75
2022/04/21 01:28:48;;;;;;;0.22;0.22;;;;;;;23.58;18.30;101739.34;5016426;28;20030;-75
2022/04/21 01:31:19;;;;;;;0.30;0.30;;;;;;;23.57;18.46;101739.59;5015646;28;20041;-75
2022/04/21 01:33:44;;;;;;;0.32;0.32;;;;;;;23.58;18.55;101741.28;5015251;28;20049;-75
2022/04/21 01:36:10;;;;;;;0.30;0.30;;;;;;;23.57;18.41;101734.13;5016698;28;20033;-75
2022/04/21 01:41:19;;;;;;;0.30;0.30;;;;;;;23.60;18.35;101739.94;5001467;28;20403;-75
2022/04/21 01:43:45;;;;;;;0.30;0.30;;;;;;;23.56;18.30;101733.31;5016077;28;20038;-75
2022/04/21 01:46:10;;;;;;;0.30;0.30;;;;;;;23.56;18.61;101732.47;5016340;28;20357;-75
2022/04/21 01:48:36;;;;;;;0.32;0.32;;;;;;;23.57;18.44;101736.88;5016341;28;20473;-76
2022/04/21 01:51:02;;;;;;;0.30;0.30;;;;;;;23.55;18.35;101730.84;5016014;28;20030;-76
2022/04/21 01:53:27;;;;;;;0.32;0.32;;;;;;;23.57;18.26;101742.31;5034929;28;20124;-76
2022/04/21 01:55:53;;;;;;;0.30;0.30;;;;;;;23.55;18.22;101736.28;5036032;28;20455;-76
2022/04/21 01:58:18;;;;;;;0.28;0.28;;;;;;;23.54;18.36;101735.47;5034687;28;20459;-76
2022/04/21 02:00:44;;;;;;;0.35;0.35;;;;;;;23.55;18.54;101739.03;5034338;28;20079;-76
2022/04/21 02:03:09;;;;;;;0.30;0.30;;;;;;;23.55;18.22;101731.66;5035405;28;20029;-76
2022/04/21 02:05:35;;;;;;;0.30;0.30;;;;;;;23.55;18.40;101728.09;5035992;28;20026;-76
2022/04/21 02:08:01;;;;;;;0.40;0.40;;;;;;;23.54;18.24;101724.56;5035653;28;20030;-76
2022/04/21 02:10:26;;;;;;;0.40;0.40;;;;;;;23.53;18.31;101724.78;5034923;28;20212;-76
2022/04/21 02:12:52;;;;;;;0.30;0.30;;;;;;;23.52;18.21;101723.13;5035454;28;20104;-76
2022/04/21 02:15:17;;;;;;;0.30;0.30;;;;;;;23.53;18.37;101727.53;5035628;28;20095;-76
2022/04/21 02:17:43;;;;;;;0.30;0.30;;;;;;;23.52;18.29;101723.13;5035437;28;20357;-76
2022/04/21 02:20:12;;;;;;;0.40;0.40;;;;;;;23.51;18.15;101724.19;5033770;28;20345;-76
2022/04/21 02:22:37;;;;;;;0.35;0.35;;;;;;;23.51;18.28;101729.63;5035712;28;20021;-76
2022/04/21 02:25:03;;;;;;;0.25;0.25;;;;;;;23.51;18.13;101726.91;5035482;28;20021;-76
2022/04/21 02:27:29;;;;;;;0.38;0.22;;;;;;;23.48;18.25;101719.22;5035246;28;20447;-76
2022/04/21 02:29:54;;;;;;;0.30;0.30;;;;;;;23.52;18.39;101712.22;5034996;28;20021;-76
2022/04/21 02:32:20;;;;;;;0.30;0.30;;;;;;;23.53;18.29;101716.59;5035139;28;20026;-76
2022/04/21 02:34:46;;;;;;;0.30;0.30;;;;;;;23.53;18.04;101722.06;5035302;28;20025;-76
2022/04/21 02:37:11;;;;;;;0.30;0.30;;;;;;;23.50;18.25;101720.63;5035155;28;20464;-76
2022/04/21 02:39:37;;;;;;;0.40;0.40;;;;;;;23.51;18.25;101719.56;5035206;28;20373;-76
2022/04/21 02:42:03;;;;;;;0.43;0.43;;;;;;;23.51;18.15;101729.63;5035375;28;20483;-76
2022/04/21 02:44:28;;;;;;;0.30;0.30;;;;;;;23.51;18.02;101719.56;5035782;28;20368;-76
2022/04/21 02:46:53;;;;;;;0.30;0.30;;;;;;;23.50;18.18;101720.63;5034993;28;20030;-76
2022/04/21 02:49:19;;;;;;;0.30;0.30;;;;;;;23.49;18.06;101712.69;5033834;28;20026;-76
2022/04/21 02:51:44;;;;;;;0.22;0.22;;;;;;;23.48;18.15;101725.50;5046588;28;20104;-76
2022/04/21 02:59:39;;;;;;;0.50;0.30;;;;;;;23.59;17.92;101721.06;5015242;28;19959;-75
2022/04/21 03:02:05;;;;;;;0.30;0.30;;;;;;;23.58;17.86;101728.44;5014910;28;20034;-76
2022/04/21 03:04:30;;;;;;;0.28;0.20;;;;;;;23.58;18.03;101713.97;5016530;28;20460;-76
2022/04/21 03:06:55;;;;;;;0.28;0.28;;;;;;;23.60;17.95;101725.47;5014791;28;20457;-76
2022/04/21 03:09:21;;;;;;;0.25;0.25;;;;;;;23.62;17.69;101715.16;5013626;28;20037;-76
2022/04/21 03:11:48;;;;;;;0.45;0.35;;;;;;;23.65;17.99;101717.41;5014824;28;20110;-75
2022/04/21 03:14:14;;;;;;;0.38;0.38;;;;;;;23.68;17.82;101718.78;5014890;28;20037;-76
2022/04/21 03:16:40;;;;;;;0.38;0.38;;;;;;;23.69;17.99;101713.09;5014411;28;20388;-76
2022/04/21 03:19:05;;;;;;;0.30;0.30;;;;;;;23.76;17.70;101724.69;5014791;28;20365;-76
2022/04/21 03:24:20;;;;;;;0.77;0.50;;;;;;;23.81;17.64;101716.63;5014802;28;20110;-76
2022/04/21 03:26:52;;;;;;;0.45;0.45;;;;;;;23.84;17.75;101717.25;5013096;28;20030;-76
2022/04/21 03:29:17;;;;;;;0.28;0.28;;;;;;;23.86;17.88;101720.53;5013276;28;20034;-75
2022/04/21 03:31:44;;;;;;;0.30;0.30;;;;;;;23.90;17.66;101719.78;5014472;28;20018;-75
2022/04/21 03:34:13;;;;;;;0.30;0.30;;;;;;;23.93;17.75;101715.75;5013566;28;20030;-76
2022/04/21 03:36:50;;;;;;;0.30;0.30;;;;;;;23.96;17.55;101715.28;5014180;28;20113;-76
2022/04/21 03:39:20;;;;;;;0.30;0.30;;;;;;;23.98;17.64;101719.41;5013330;28;20129;-75
2022/04/21 03:41:46;;;;;;;0.30;0.30;;;;;;;24.00;17.66;101714.53;5012726;28;20026;-75
2022/04/21 03:44:11;;;;;;;0.20;0.20;;;;;;;24.05;17.71;101716.53;5013752;28;20132;-76
2022/04/21 03:46:38;;;;;;;0.30;0.30;;;;;;;24.06;17.40;101715.47;5014211;28;20022;-76
2022/04/21 03:49:06;;;;;;;0.30;0.30;;;;;;;24.08;17.50;101720.69;5014236;28;20036;-76
2022/04/21 03:51:32;;;;;;;0.30;0.30;;;;;;;24.10;17.67;101724.81;5015584;28;20469;-75
2022/04/21 03:53:57;;;;;;;0.43;0.43;;;;;;;24.12;17.72;101717.19;5033425;28;20025;-76
2022/04/21 03:56:23;;;;;;;0.30;0.30;;;;;;;24.14;17.88;101714.22;5033436;28;20025;-76
2022/04/21 03:58:49;;;;;;;0.35;0.30;;;;;;;24.14;17.63;101706.84;5033596;28;20029;-76
2022/04/21 04:01:15;;;;;;;0.25;0.25;;;;;;;24.18;17.67;101721.69;5033078;28;20021;-76
2022/04/21 04:03:40;;;;;;;0.30;0.30;;;;;;;24.21;17.47;101717.63;5033571;28;20026;-75
2022/04/21 04:10:51;;;;;;;0.43;0.30;;;;;;;24.21;17.56;101716.78;5033830;28;20052;-75
2022/04/21 04:11:38;;;;;;;0.40;0.40;;;;;;;24.23;17.61;101710.00;5031685;28;20120;-75
2022/04/21 04:14:05;;;;;;;0.32;0.32;;;;;;;24.30;17.63;101718.03;5031629;28;20034;-75
2022/04/21 04:16:34;;;;;;;0.30;0.30;;;;;;;24.30;17.45;101712.56;5031963;28;20034;-75
2022/04/21 04:19:03;;;;;;;0.30;0.30;;;;;;;24.31;17.68;101715.06;5031066;28;20405;-75
2022/04/21 04:21:29;;;;;;;0.30;0.30;;;;;;;24.34;17.57;101719.22;5031722;28;20057;-75
2022/04/21 04:23:54;;;;;;;1.17;0.40;;;;;;;24.28;17.44;101712.00;5031616;28;20330;-75
2022/04/21 04:26:20;;;;;;;0.28;0.28;;;;;;;24.37;17.71;101713.25;5031362;28;20038;-76
2022/04/21 04:28:45;;;;;;;0.30;0.30;;;;;;;24.39;17.41;101719.28;5031165;28;20540;-75
2022/04/21 04:31:10;;;;;;;0.90;0.40;;;;;;;24.42;17.76;101718.78;5031455;28;20028;-75
2022/04/21 04:33:36;;;;;;;0.73;0.50;;;;;;;24.43;17.59;101720.44;5030959;28;20025;-75
2022/04/21 04:36:01;;;;;;;0.38;0.38;;;;;;;24.38;17.84;101723.09;5030765;28;20065;-76
2022/04/21 04:38:27;;;;;;;0.57;0.47;;;;;;;24.43;17.58;101725.91;5014305;28;20029;-76
2022/04/21 04:40:52;;;;;;;0.43;0.32;;;;;;;24.47;17.79;101727.06;5030825;28;20068;-75
2022/04/21 04:43:18;;;;;;;0.38;0.38;;;;;;;24.51;17.62;101720.03;5030549;28;20053;-77
2022/04/21 04:48:27;;;;;;;0.68;0.40;;;;;;;24.59;17.59;101723.47;5035930;28;20060;-77
2022/04/21 04:50:53;;;;;;;0.32;0.32;;;;;;;24.61;17.59;101715.81;5036890;28;20025;-76
2022/04/21 04:53:18;;;;;;;0.20;0.20;;;;;;;24.64;17.38;101720.81;5021377;28;20026;-76
2022/04/21 04:55:44;;;;;;;0.40;0.40;;;;;;;24.65;17.44;101719.75;5017255;28;20084;-77
2022/04/21 04:58:09;;;;;;;0.30;0.30;;;;;;;24.67;17.52;101721.13;5017454;28;20456;-76
2022/04/21 05:00:34;;;;;;;0.70;0.40;;;;;;;24.70;17.61;101722.56;5017094;28;20329;-76
2022/04/21 05:03:01;;;;;;;0.40;0.40;;;;;;;24.68;17.51;101722.81;5017721;28;20026;-76
2022/04/21 05:05:26;;;;;;;0.63;0.40;;;;;;;24.72;17.61;101720.38;5017243;28;20030;-76
2022/04/21 05:07:51;;;;;;;0.57;0.55;;;;;;;24.70;17.69;101730.75;5017858;28;20139;-76
2022/04/21 05:10:19;;;;;;;0.30;0.30;;;;;;;24.68;17.71;101727.41;5016960;28;20048;-76
2022/04/21 05:12:44;;;;;;;0.43;0.43;;;;;;;24.73;17.78;101730.22;5017052;28;20048;-76
2022/04/21 05:15:10;;;;;;;0.88;0.35;;;;;;;24.75;17.53;101728.09;5017195;28;20448;-77
2022/04/21 05:17:35;;;;;;;0.35;0.35;;;;;;;24.82;17.46;101726.00;5016338;28;20334;-76
2022/04/21 05:20:02;;;;;;;0.63;0.40;;;;;;;24.81;17.20;101737.19;5016391;28;20030;-76
2022/04/21 05:22:28;;;;;;;1.75;0.30;;;;;;;24.83;17.79;101724.09;5016938;28;20367;-76
2022/04/21 05:24:54;;;;;;;0.40;0.40;;;;;;;24.85;17.35;101721.94;5016949;28;20030;-76
2022/04/21 05:27:19;;;;;;;0.32;0.30;;;;;;;24.85;17.33;101728.25;4999303;28;20468;-76
2022/04/21 05:32:30;;;;;;;0.38;0.38;;;;;;;24.95;17.33;101719.34;5017261;28;20104;-76
2022/04/21 05:34:56;;;;;;;0.45;0.40;;;;;;;24.92;17.40;101723.44;4999374;28;20080;-77
2022/04/21 05:37:21;;;;;;;0.45;0.45;;;;;;;24.95;17.26;101735.75;5017260;28;20029;-76
2022/04/21 05:39:47;;;;;;;0.47;0.38;;;;;;;24.96;17.52;101733.84;5017354;28;20034;-76
2022/04/21 05:42:25;;;;;;;0.30;0.30;;;;;;;25.00;17.28;101732.28;5015977;28;20547;-77
2022/04/21 05:44:54;;;;;;;0.45;0.45;;;;;;;24.99;17.42;101730.59;5016664;28;20022;-77
2022/04/21 05:47:20;;;;;;;1.35;0.38;;;;;;;25.03;17.23;101734.50;5015268;28;20361;-77
2022/04/21 05:49:46;;;;;;;0.30;0.30;;;;;;;25.01;17.19;101733.91;5016558;28;20026;-77
2022/04/21 05:52:12;;;;;;;1.15;0.40;;;;;;;25.04;17.37;101731.53;5023506;28;20052;-77
2022/04/21 05:54:38;;;;;;;0.40;0.30;;;;;;;25.05;17.14;101733.16;5052400;28;20022;-75
2022/04/21 05:57:03;;;;;;;1.05;0.63;;;;;;;25.09;17.05;101737.06;5050633;28;20549;-76
2022/04/21 05:59:29;;;;;;;0.85;0.40;;;;;;;25.10;17.29;101740.63;5036106;28;20029;-76
2022/04/21 06:01:54;;;;;;;0.40;0.40;;;;;;;25.09;17.21;101734.34;5035785;28;20025;-76
2022/04/21 06:04:22;;;;;;;0.20;0.20;;;;;;;25.10;17.14;101730.50;5034127;28;20026;-76
2022/04/21 06:06:48;;;;;;;0.43;0.43;;;;;;;25.17;17.35;101735.78;5035781;28;20029;-77
2022/04/21 06:09:13;;;;;;;0.30;0.30;;;;;;;25.17;17.48;101735.78;5035842;28;20028;-77
2022/04/21 06:11:39;;;;;;;0.40;0.40;;;;;;;25.23;17.31;101728.47;5035821;28;20022;-77
2022/04/21 06:14:04;;;;;;;0.90;0.40;;;;;;;25.24;17.50;101730.97;5035407;28;20021;-76
2022/04/21 06:16:29;;;;;;;1.45;0.50;;;;;;;25.15;17.32;101724.28;5035791;28;20128;-76
2022/04/21 06:18:55;;;;;;;1.58;0.50;;;;;;;24.74;17.75;101731.91;5050533;28;20029;-77
2022/04/21 06:21:20;;;;;;;0.40;0.40;;;;;;;24.09;18.64;101731.31;5035732;28;20025;-77
2022/04/21 06:23:46;;;;;;;0.50;0.50;;;;;;;24.08;18.48;101734.34;5035044;28;20025;-76
2022/04/21 06:26:12;;;;;;;2.38;0.40;;;;;;;24.17;18.46;101730.94;5035392;28;20036;-76
2022/04/21 06:28:38;;;;;;;0.98;0.70;;;;;;;24.05;18.29;101732.91;5034998;28;20067;-76
2022/04/21 06:31:03;;;;;;;1.02;0.50;;;;;;;24.70;17.88;101728.03;5035708;28;20026;-76
2022/04/21 06:33:32;;;;;;;0.43;0.40;;;;;;;24.97;17.53;101725.38;5035522;28;20463;-76
2022/04/21 06:35:59;;;;;;;0.60;0.30;;;;;;;25.09;17.15;101720.66;5035005;28;20483;-76
2022/04/21 06:38:25;;;;;;;0.80;0.50;;;;;;;25.19;17.07;101721.88;5035355;28;20030;-76
2022/04/21 06:40:50;;;;;;;0.40;0.40;;;;;;;25.24;16.93;101720.00;5033612;28;20040;-76
2022/04/21 06:48:45;;;;;;;0.93;0.60;;;;;;;25.33;16.78;101723.16;5034397;28;20076;-76
2022/04/21 06:51:11;;;;;;;0.70;0.40;;;;;;;25.39;16.45;101726.78;5034551;28;20025;-76
2022/04/21 06:53:39;;;;;;;2.30;0.70;;;;;;;25.39;16.82;101721.31;5019045;28;20030;-77
2022/04/21 06:56:04;;;;;;;0.63;0.43;;;;;;;25.40;16.71;101720.25;5013286;28;20029;-76
2022/04/21 06:58:30;;;;;;;0.40;0.40;;;;;;;25.38;16.60;101720.50;5015035;28;20052;-77
2022/04/21 07:00:58;;;;;;;0.30;0.30;;;;;;;25.35;16.57;101720.19;5014239;28;20465;-76
2022/04/21 07:03:24;;;;;;;0.40;0.40;;;;;;;25.39;16.83;101722.16;5013320;28;20030;-77
2022/04/21 07:05:55;;;;;;;1.02;0.40;;;;;;;24.83;17.16;101727.66;5014315;28;20365;-76
2022/04/21 07:08:20;;;;;;;1.85;0.45;;;;;;;24.35;17.95;101720.84;5013110;28;20034;-76
2022/04/21 07:10:46;;;;;;;0.73;0.50;;;;;;;24.51;17.73;101709.09;5014764;28;20036;-76
2022/04/21 07:13:11;;;;;;;3.20;0.50;;;;;;;24.58;17.85;101721.78;5014299;28;20061;-76
2022/04/21 07:15:38;;;;;;;0.93;0.45;;;;;;;25.10;17.69;101716.81;5014096;28;20432;-76
2022/04/21 07:18:03;;;;;;;0.60;0.50;;;;;;;25.40;17.28;101717.50;5014309;28;20028;-76
2022/04/21 07:20:29;;;;;;;2.17;0.40;;;;;;;25.46;17.38;101719.22;5014454;28;20350;-76
2022/04/21 07:22:55;;;;;;;1.88;0.50;;;;;;;25.52;17.20;101709.97;5013920;28;20101;-76
2022/04/21 07:25:20;;;;;;;0.50;0.40;;;;;;;25.65;16.92;101715.06;5012900;28;20029;-76
2022/04/21 07:27:46;;;;;;;0.50;0.50;;;;;;;25.76;16.65;101709.69;5013901;28;20037;-76
2022/04/21 07:30:12;;;;;;;0.30;0.30;;;;;;;25.80;16.47;101719.03;5012638;28;20469;-76
2022/04/21 07:32:38;;;;;;;0.40;0.40;;;;;;;25.78;16.55;101716.56;5014649;28;20026;-76
2022/04/21 07:35:04;;;;;;;0.30;0.30;;;;;;;25.76;16.23;101713.25;5013952;28;20022;-76
2022/04/21 07:37:30;;;;;;;0.43;0.32;;;;;;;25.70;16.71;101710.72;5013739;28;20022;-77
2022/04/21 07:39:56;;;;;;;0.40;0.40;;;;;;;25.79;16.57;101709.19;5014334;28;20037;-76
2022/04/21 07:42:22;;;;;;;0.85;0.57;;;;;;;25.81;16.61;101712.50;5013961;28;20098;-76
2022/04/21 07:44:48;;;;;;;3.08;1.70;;;;;;;25.80;16.81;101713.56;5014369;28;20033;-76
2022/04/21 07:47:13;;;;;;;4.53;2.03;;;;;;;25.81;16.48;101709.75;5013712;28;20348;-76
2022/04/21 07:49:45;;;;;;;2.53;1.40;;;;;;;25.83;16.87;101713.88;5013611;28;20029;-76
2022/04/21 07:54:54;;;;;;;2.60;1.10;;;;;;;25.89;16.58;101716.66;5033333;28;20392;-75
2022/04/21 07:57:20;;;;;;;2.15;1.25;;;;;;;25.85;16.56;101719.94;5033718;28;20034;-75
2022/04/21 07:59:47;;;;;;;1.73;1.10;;;;;;;25.85;16.89;101713.63;5032641;28;20060;-76
2022/04/21 08:02:15;;;;;;;2.25;0.75;;;;;;;25.86;16.82;101715.28;5035227;28;20017;-77
2022/04/21 08:04:43;;;;;;;1.58;0.90;;;;;;;25.84;16.86;101717.47;5032685;28;20044;-77
2022/04/21 08:07:08;;;;;;;1.63;0.90;;;;;;;25.87;16.48;101708.72;5032829;28;20451;-77
2022/04/21 08:09:34;;;;;;;1.30;0.93;;;;;;;25.93;16.31;101713.16;5033984;28;20026;-77
2022/04/21 08:11:59;;;;;;;1.77;1.00;;;;;;;25.93;16.03;101710.41;5034630;28;20045;-76
2022/04/21 08:14:25;;;;;;;1.80;0.85;;;;;;;25.92;16.01;101708.75;5035045;28;20029;-76
2022/04/21 08:16:53;;;;;;;0.88;0.80;;;;;;;25.95;15.88;101713.75;5034996;28;20022;-76
2022/04/21 08:19:19;;;;;;;1.60;0.77;;;;;;;25.95;15.92;101713.75;5035241;28;20495;-76
2022/04/21 08:21:44;;;;;;;1.05;0.60;;;;;;;25.92;15.65;101721.63;5034128;28;20481;-76
2022/04/21 08:32:43;;;;;;;1.13;0.52;;;;;;;25.99;15.63;101705.84;5031436;28;20120;-77
2022/04/21 08:35:13;;;;;;;1.17;0.50;;;;;;;26.00;15.60;101713.00;5015581;28;20168;-76
2022/04/21 08:37:42;;;;;;;1.35;0.60;;;;;;;25.97;15.58;101710.75;5034479;28;20044;-76
2022/04/21 08:40:10;;;;;;;0.68;0.50;;;;;;;25.95;15.68;101705.53;5034891;28;20033;-77
2022/04/21 08:42:39;;;;;;;2.75;0.40;;;;;;;25.99;15.67;101714.06;5036711;28;20041;-79
2022/04/21 08:45:08;;;;;;;0.80;0.50;;;;;;;25.90;15.65;101708.19;5018487;28;20057;-77
2022/04/21 08:47:33;;;;;;;1.40;0.70;;;;;;;25.93;15.62;101704.94;5033681;28;20041;-77
2022/04/21 08:50:06;;;;;;;0.52;0.47;;;;;;;25.95;15.55;101705.53;5034190;28;20115;-77
2022/04/21 08:52:34;;;;;;;1.17;0.32;;;;;;;26.00;15.63;101705.59;5013807;28;20022;-77
2022/04/21 08:55:02;;;;;;;1.95;0.50;;;;;;;25.95;15.51;101694.59;5012368;28;20041;-77
2022/04/21 08:57:28;;;;;;;0.80;0.40;;;;;;;25.98;15.54;101702.28;5013540;28;20030;-78
2022/04/21 08:59:55;;;;;;;0.30;0.30;;;;;;;26.01;15.40;101690.00;5015367;28;20026;-76
2022/04/21 09:02:21;;;;;;;0.43;0.30;;;;;;;26.01;15.49;101693.56;5012730;28;20072;-76
2022/04/21 09:04:46;;;;;;;1.30;0.40;;;;;;;26.03;15.52;101683.16;5013915;28;20026;-78
2022/04/21 09:07:20;;;;;;;0.68;0.30;;;;;;;26.04;15.39;101690.31;5010843;28;20096;-77
2022/04/21 09:10:02;;;;;;;0.20;0.20;;;;;;;26.14;15.39;101686.81;4997070;28;20046;-77
2022/04/21 09:12:28;;;;;;;0.30;0.30;;;;;;;26.09;15.34;101688.69;4994730;28;20046;-77
2022/04/21 09:14:53;;;;;;;0.80;0.38;;;;;;;26.09;15.16;101675.81;4992634;28;20480;-76
2022/04/21 09:17:19;;;;;;;1.10;0.35;;;;;;;26.12;15.20;101679.94;4994316;28;20031;-77
2022/04/21 09:20:11;;;;;;;0.30;0.30;;;;;;;26.19;15.47;101675.06;4994549;28;20031;-76
2022/04/21 09:22:39;;;;;;;0.38;0.38;;;;;;;26.11;15.46;101684.59;4994335;28;20471;-76
2022/04/21 09:25:06;;;;;;;2.10;0.75;;;;;;;26.10;15.41;101676.66;4993921;28;20077;-77
2022/04/21 09:27:38;;;;;;;6.78;2.25;;;;;;;26.12;15.34;101669.81;4994164;28;20046;-76
2022/04/21 09:30:04;;;;;;;36.15;14.30;;;;;;;26.13;15.48;101673.38;4993713;28;20026;-76
2022/04/21 09:32:29;;;;;;;89.38;29.77;;;;;;;26.13;15.27;101681.59;4998588;28;20030;-77
2022/04/21 09:34:56;;;;;;;57.67;23.27;;;;;;;26.18;15.62;101670.66;4998736;28;20319;-77
2022/04/21 09:37:22;;;;;;;34.85;13.23;;;;;;;26.15;15.65;101669.28;4995614;28;20061;-77
2022/04/21 09:39:50;;;;;;;24.40;9.90;;;;;;;26.15;15.40;101672.03;5012455;28;20124;-77
2022/04/21 09:42:29;;;;;;;15.80;6.88;;;;;;;26.28;15.39;101669.94;4998791;28;20478;-78
2022/04/21 09:47:54;;;;;;;10.95;3.17;;;;;;;26.36;15.63;101659.31;4997942;28;20040;-77
2022/04/21 09:50:20;;;;;;;7.85;3.17;;;;;;;26.35;15.54;101663.13;4998755;28;20105;-78
2022/04/21 09:52:50;;;;;;;5.38;2.50;;;;;;;26.29;15.68;101660.63;5008196;28;20052;-77
2022/04/21 09:55:25;;;;;;;6.30;2.20;;;;;;;25.79;16.06;101665.38;5041668;28;20021;-78
2022/04/21 09:57:52;;;;;;;2.58;1.48;;;;;;;25.90;16.06;101664.38;5039532;28;20040;-78
2022/04/21 10:00:21;;;;;;;5.13;1.67;;;;;;;25.28;16.35;101655.53;5036008;28;20075;-77
2022/04/21 10:02:48;;;;;;;5.20;1.00;;;;;;;25.49;16.12;101653.00;5038367;28;20363;-78
2022/04/21 10:05:14;;;;;;;2.30;1.00;;;;;;;25.66;15.92;101655.66;5039286;28;20025;-78
2022/04/21 10:07:39;;;;;;;1.42;0.85;;;;;;;25.78;15.86;101655.50;5038928;28;20052;-77
2022/04/21 10:10:05;;;;;;;2.47;0.80;;;;;;;25.90;16.03;101650.69;5039293;28;20045;-78
2022/04/21 10:12:31;;;;;;;0.77;0.70;;;;;;;25.93;15.82;101636.47;5039893;28;20113;-79
2022/04/21 10:14:56;;;;;;;2.65;0.80;;;;;;;25.99;15.70;101638.22;5041127;28;20443;-80
2022/04/21 10:17:22;;;;;;;1.42;0.50;;;;;;;26.19;15.81;101636.72;5041312;28;20100;-78
2022/04/21 10:19:51;;;;;;;1.58;0.60;;;;;;;26.18;15.94;101640.53;5038580;28;20515;-76
2022/04/21 10:22:16;;;;;;;0.45;0.30;;;;;;;26.19;15.65;101636.72;5035885;28;20030;-76
2022/04/21 10:24:43;;;;;;;0.77;0.60;;;;;;;26.67;15.27;101632.13;5054003;28;20040;-77
2022/04/21 10:27:33;;;;;;;1.42;0.40;;;;;;;26.87;15.15;101631.41;5037432;28;20081;-76
2022/04/21 10:29:58;;;;;;;0.30;0.30;;;;;;;26.92;15.14;101627.84;5035117;28;20042;-77
2022/04/21 10:32:45;;;;;;;0.90;0.50;;;;;;;26.90;14.78;101625.38;5036523;28;20037;-76
2022/04/21 10:35:20;;;;;;;0.98;0.22;;;;;;;26.98;14.85;101624.06;5020193;28;20041;-76
2022/04/21 10:37:46;;;;;;;1.60;0.50;;;;;;;26.93;15.17;101618.53;5038699;28;20404;-76
2022/04/21 10:40:14;;;;;;;0.63;0.47;;;;;;;26.96;14.86;101624.31;5022934;28;20029;-75
2022/04/21 10:43:03;;;;;;;0.38;0.30;;;;;;;26.95;15.04;101616.34;5038719;28;20041;-76
2022/04/21 10:45:32;;;;;;;1.42;0.30;;;;;;;26.93;14.97;101618.53;5038579;28;20458;-76
2022/04/21 10:48:13;;;;;;;0.60;0.30;;;;;;;26.86;15.19;101609.75;5038012;28;20041;-78
2022/04/21 10:50:45;;;;;;;1.80;0.47;;;;;;;26.92;14.94;101612.25;5037851;28;20037;-77
2022/04/21 10:58:42;;;;;;;0.30;0.30;;;;;;;27.06;14.77;101609.81;5021563;28;20198;-76
2022/04/21 11:01:11;;;;;;;0.30;0.30;;;;;;;27.08;14.78;101609.53;5021814;28;20038;-76
2022/04/21 11:03:37;;;;;;;0.60;0.30;;;;;;;27.00;14.99;101608.16;4986160;28;20030;-78
2022/04/21 11:06:09;;;;;;;0.38;0.38;;;;;;;27.03;15.08;101606.75;5015241;28;20025;-77
2022/04/21 11:08:35;;;;;;;0.60;0.40;;;;;;;27.00;14.90;101601.84;5015626;28;20033;-76
2022/04/21 11:11:00;;;;;;;0.40;0.38;;;;;;;26.96;14.97;101596.06;5015387;28;20022;-76
2022/04/21 11:14:03;;;;;;;1.17;0.60;;;;;;;27.00;15.12;101605.41;5015206;28;20459;-76
2022/04/21 11:16:40;;;;;;;0.63;0.50;;;;;;;26.96;15.04;101601.56;5015404;28;20037;-79
2022/04/21 11:19:46;;;;;;;0.40;0.40;;;;;;;26.98;15.03;101599.38;5015603;28;20114;-76
2022/04/21 11:22:13;;;;;;;3.40;1.45;;;;;;;26.93;14.75;101596.59;5022028;28;20041;-76
2022/04/21 11:24:58;;;;;;;14.23;5.70;;;;;;;26.93;14.81;101591.13;5015735;28;20033;-76
2022/04/21 11:27:24;;;;;;;26.75;10.68;;;;;;;26.84;14.83;101587.22;5014919;28;20037;-76
2022/04/21 11:29:49;;;;;;;32.47;11.57;;;;;;;26.82;14.84;101584.78;5013616;28;20034;-76
2022/04/21 11:32:16;;;;;;;22.58;8.60;;;;;;;26.79;14.79;101582.56;5015144;28;20445;-76
2022/04/21 11:34:42;;;;;;;16.67;6.85;;;;;;;26.82;14.87;101584.78;5014297;28;20026;-76
2022/04/21 11:37:08;;;;;;;11.38;4.60;;;;;;;26.83;14.77;101580.09;5013043;28;20041;-77
2022/04/21 11:39:37;;;;;;;8.90;4.10;;;;;;;26.81;14.68;101582.28;5014462;28;20550;-77
2022/04/21 11:42:03;;;;;;;8.45;3.15;;;;;;;26.78;14.76;101581.72;5015515;28;20033;-77
2022/04/21 11:44:29;;;;;;;8.93;3.22;;;;;;;26.80;14.61;101575.97;5013875;28;20494;-77
2022/04/21 11:46:54;;;;;;;6.70;2.58;;;;;;;26.78;15.08;101573.47;5014364;28;20044;-79
2022/04/21 11:49:19;;;;;;;4.30;2.17;;;;;;;26.27;15.71;101573.22;5014496;28;20388;-79
2022/04/21 11:51:51;;;;;;;4.18;2.00;;;;;;;25.98;15.88;101565.34;5013961;28;20437;-77
2022/04/21 11:54:17;;;;;;;5.03;1.60;;;;;;;25.91;15.64;101559.25;5028426;28;20021;-79
2022/04/21 11:56:48;;;;;;;2.88;1.27;;;;;;;26.00;15.67;101565.91;5032760;28;20037;-80
2022/04/21 11:59:13;;;;;;;3.60;1.08;;;;;;;25.54;16.00;101553.72;5049257;28;20449;-78
2022/04/21 12:07:09;;;;;;;3.47;0.90;;;;;;;26.53;15.11;101554.19;5033967;28;20196;-79
2022/04/21 12:09:38;;;;;;;1.52;0.70;;;;;;;26.81;14.77;101554.88;5032885;28;20029;-79
2022/04/21 12:12:04;;;;;;;1.42;0.73;;;;;;;26.93;14.71;101547.22;5034001;28;20037;-78
2022/04/21 12:14:30;;;;;;;1.08;0.57;;;;;;;26.89;15.06;101540.63;5032986;28;20032;-76
2022/04/21 12:16:59;;;;;;;1.17;0.45;;;;;;;26.49;15.05;101533.84;5033365;28;20034;-79
2022/04/21 12:19:46;;;;;;;1.33;0.80;;;;;;;26.56;15.17;101534.44;5048660;28;20083;-78